Time;durP1;ratioP1;P1;durP2;ratioP2;P2;SDS_P1;SDS_P2;PMS_P1;PMS_P2;Temp;Humidity;BMP_temperature;BMP_pressure;BME280_temperature;BME280_humidity;BME280_pressure;Samples;Min_cycle;Max_cycle;Signal;HPM_P1;HPM_P2
2024/02/07 00:02:14;;;;;;;5.17;4.27;;;9.00;1.00;;;;;;4985032;28;20949;-88
2024/02/07 00:04:41;;;;;;;8.90;4.83;;;9.00;1.00;;;;;;4982634;28;20468;-88
2024/02/07 00:07:09;;;;;;;12.40;4.57;;;9.00;1.00;;;;;;4981611;28;20501;-88
2024/02/07 00:09:42;;;;;;;11.13;4.67;;;9.00;1.00;;;;;;4987874;28;20520;-91
2024/02/07 00:12:09;;;;;;;7.60;5.27;;;8.90;1.00;;;;;;4996971;28;20597;-88
2024/02/07 00:14:36;;;;;;;6.73;4.53;;;9.00;1.00;;;;;;5001503;28;20455;-87
2024/02/07 00:17:03;;;;;;;9.50;5.10;;;8.90;1.00;;;;;;5000722;28;20477;-89
2024/02/07 00:19:30;;;;;;;8.50;5.83;;;8.90;1.00;;;;;;4981172;28;20420;-88
2024/02/07 00:21:57;;;;;;;12.23;6.00;;;8.90;1.00;;;;;;4981697;28;20448;-88
2024/02/07 00:24:26;;;;;;;6.87;5.23;;;8.80;1.00;;;;;;4980776;28;20897;-88
2024/02/07 00:26:52;;;;;;;11.73;5.00;;;8.80;1.00;;;;;;4985321;28;21001;-88
2024/02/07 00:29:19;;;;;;;9.20;5.00;;;8.80;1.00;;;;;;4992371;28;20444;-89
2024/02/07 00:31:46;;;;;;;4.87;4.47;;;8.80;1.00;;;;;;5001514;28;20437;-87
2024/02/07 00:34:13;;;;;;;8.20;4.47;;;8.80;1.00;;;;;;5002377;28;20484;-86
2024/02/07 00:36:40;;;;;;;6.17;4.93;;;8.80;1.00;;;;;;5002495;28;20465;-87
2024/02/07 00:39:07;;;;;;;8.57;5.27;;;8.70;1.00;;;;;;5002151;28;20420;-87
2024/02/07 00:41:35;;;;;;;7.37;5.67;;;8.80;1.00;;;;;;5002106;28;20475;-88
2024/02/07 00:44:02;;;;;;;7.00;4.83;;;8.80;1.00;;;;;;5001969;28;20838;-86
2024/02/07 00:46:29;;;;;;;9.23;5.43;;;8.80;1.00;;;;;;5002103;28;20460;-87
2024/02/07 00:48:56;;;;;;;10.30;5.17;;;8.80;1.00;;;;;;5002322;28;20461;-87
2024/02/07 00:51:23;;;;;;;7.70;5.23;;;8.80;1.00;;;;;;5001920;28;20437;-88
2024/02/07 00:53:50;;;;;;;5.10;4.20;;;8.80;1.00;;;;;;4989438;28;20447;-88
2024/02/07 00:56:17;;;;;;;10.17;4.60;;;8.80;1.00;;;;;;4983221;28;20520;-88
2024/02/07 00:58:45;;;;;;;7.87;4.77;;;8.80;1.00;;;;;;4982222;28;20477;-89
2024/02/07 01:01:12;;;;;;;12.70;4.23;;;8.90;1.00;;;;;;4983178;28;20866;-88
2024/02/07 01:03:39;;;;;;;5.57;4.40;;;8.80;1.00;;;;;;4984063;28;20451;-88
2024/02/07 01:06:06;;;;;;;4.33;3.93;;;8.80;1.00;;;;;;4981209;28;20537;-89
2024/02/07 01:08:33;;;;;;;5.20;4.40;;;8.80;1.00;;;;;;4980840;28;20457;-89
2024/02/07 01:11:00;;;;;;;5.13;4.63;;;8.90;1.00;;;;;;4980110;28;20424;-89
2024/02/07 01:13:27;;;;;;;5.30;4.80;;;8.80;1.00;;;;;;4979596;28;20451;-87
2024/02/07 01:15:55;;;;;;;6.37;4.13;;;8.80;1.00;;;;;;4979581;28;20816;-87
2024/02/07 01:18:22;;;;;;;4.90;3.83;;;8.80;1.00;;;;;;4984614;28;20420;-87
2024/02/07 01:20:49;;;;;;;5.43;3.80;;;8.80;1.00;;;;;;4982332;28;20551;-88
2024/02/07 01:23:16;;;;;;;9.43;4.80;;;8.80;1.00;;;;;;4980537;28;20496;-88
2024/02/07 01:25:43;;;;;;;6.70;4.30;;;8.80;1.00;;;;;;4980037;28;20471;-88
2024/02/07 01:28:10;;;;;;;8.83;5.30;;;8.90;1.00;;;;;;4982433;28;20490;-88
2024/02/07 01:30:37;;;;;;;4.70;4.20;;;8.90;1.00;;;;;;4979411;28;20886;-89
2024/02/07 01:33:06;;;;;;;2.03;1.63;;;8.90;1.00;;;;;;4979474;28;20448;-88
2024/02/07 01:35:33;;;;;;;1.00;0.90;;;8.70;1.00;;;;;;4979258;28;20516;-88
2024/02/07 01:38:07;;;;;;;2.03;0.90;;;8.20;1.00;;;;;;4979667;28;20446;-90
2024/02/07 01:40:42;;;;;;;0.93;0.93;;;7.90;1.00;;;;;;4979789;28;20961;-89
2024/02/07 01:43:11;;;;;;;1.92;1.00;;;7.70;1.00;;;;;;4979009;28;20464;-89
2024/02/07 01:45:39;;;;;;;1.27;0.70;;;7.50;1.00;;;;;;4979054;28;20611;-89
2024/02/07 01:48:08;;;;;;;0.90;0.90;;;7.40;1.00;;;;;;4978579;28;20903;-89
2024/02/07 01:50:37;;;;;;;0.93;0.80;;;7.40;1.00;;;;;;4978170;28;20999;-89
2024/02/07 01:53:06;;;;;;;1.20;0.90;;;7.40;1.00;;;;;;4989900;28;20186;-89
2024/02/07 01:55:35;;;;;;;1.10;1.00;;;7.20;1.00;;;;;;5005937;23;20244;-87
2024/02/07 01:58:04;;;;;;;2.03;1.30;;;7.30;1.00;;;;;;4979457;28;20674;-87
2024/02/07 02:00:33;;;;;;;1.52;0.90;;;7.20;1.00;;;;;;4980405;28;20217;-87
2024/02/07 02:03:00;;;;;;;1.27;1.10;;;7.20;1.00;;;;;;4978685;28;20278;-87
2024/02/07 02:05:28;;;;;;;3.53;1.08;;;7.20;1.00;;;;;;4980294;28;20661;-87
2024/02/07 02:07:55;;;;;;;0.70;0.70;;;7.20;1.00;;;;;;4979407;28;20236;-88
2024/02/07 02:10:22;;;;;;;1.17;1.07;;;6.90;1.00;;;;;;4979419;28;20704;-87
2024/02/07 02:12:49;;;;;;;1.15;0.80;;;6.50;1.00;;;;;;4992337;28;20452;-87
2024/02/07 02:15:16;;;;;;;4.43;0.90;;;6.50;1.00;;;;;;4983646;28;20225;-87
2024/02/07 02:17:43;;;;;;;2.75;0.95;;;6.40;1.00;;;;;;4979962;28;20300;-87
2024/02/07 02:20:10;;;;;;;2.13;0.90;;;6.30;1.00;;;;;;4982613;28;20277;-87
2024/02/07 02:23:16;;;;;;;4.10;1.02;;;6.20;1.00;;;;;;4990780;28;20255;-87
2024/02/07 02:26:35;;;;;;;1.13;1.02;;;6.20;1.00;;;;;;4992888;28;20292;-87
2024/02/07 02:29:14;;;;;;;1.83;0.80;;;6.10;1.00;;;;;;4942749;29;20319;-87
2024/02/07 02:31:46;;;;;;;2.88;1.17;;;5.90;1.00;;;;;;4986024;28;20244;-87
2024/02/07 02:34:14;;;;;;;1.85;0.90;;;6.00;1.00;;;;;;4991528;28;20237;-88
2024/02/07 02:36:41;;;;;;;3.25;1.30;;;6.00;1.00;;;;;;4983524;28;20208;-87
2024/02/07 02:39:08;;;;;;;5.40;2.03;;;6.00;1.00;;;;;;4980813;28;20211;-88
2024/02/07 02:41:36;;;;;;;2.38;1.23;;;6.10;1.00;;;;;;4978161;28;20210;-87
2024/02/07 02:44:03;;;;;;;2.25;1.90;;;6.10;1.00;;;;;;4980588;28;20242;-87
2024/02/07 02:46:32;;;;;;;3.10;1.23;;;6.20;1.00;;;;;;4980655;28;20201;-86
2024/02/07 02:48:59;;;;;;;1.45;1.08;;;6.00;1.00;;;;;;4979435;28;20285;-87
2024/02/07 02:51:26;;;;;;;1.25;1.15;;;6.10;1.00;;;;;;4977164;28;20682;-87
2024/02/07 02:53:54;;;;;;;3.65;1.25;;;6.10;1.00;;;;;;4977775;28;20216;-87
2024/02/07 02:56:21;;;;;;;1.88;1.13;;;6.10;1.00;;;;;;4977659;28;20296;-87
2024/02/07 02:58:48;;;;;;;2.05;1.13;;;6.10;1.00;;;;;;4977915;28;20206;-88
2024/02/07 03:01:15;;;;;;;2.00;1.10;;;6.00;1.00;;;;;;4977993;28;20213;-87
2024/02/07 03:03:53;;;;;;;1.67;1.38;;;6.00;1.00;;;;;;4978003;28;20209;-88
2024/02/07 03:06:28;;;;;;;2.50;1.30;;;6.00;1.00;;;;;;4978276;28;20280;-87
2024/02/07 03:09:06;;;;;;;2.03;1.42;;;6.10;1.00;;;;;;4978690;28;20205;-87
2024/02/07 03:11:33;;;;;;;1.58;1.27;;;6.00;1.00;;;;;;4977216;28;20284;-87
2024/02/07 03:14:01;;;;;;;1.67;1.10;;;5.90;1.00;;;;;;4977943;28;20229;-86
2024/02/07 03:16:28;;;;;;;2.00;1.10;;;5.80;1.00;;;;;;4977762;28;20292;-87
2024/02/07 03:18:58;;;;;;;1.05;0.95;;;5.80;99.90;;;;;;4977103;28;20205;-86
2024/02/07 03:21:26;;;;;;;1.60;1.05;;;5.80;1.00;;;;;;4977821;28;20216;-86
2024/02/07 03:23:55;;;;;;;2.20;1.02;;;5.80;1.00;;;;;;4977362;28;20209;-86
2024/02/07 03:26:23;;;;;;;3.33;1.83;;;5.80;1.00;;;;;;4978416;28;20229;-86
2024/02/07 03:28:51;;;;;;;1.30;1.20;;;5.70;1.00;;;;;;4978474;28;20225;-86
2024/02/07 03:31:18;;;;;;;1.35;0.95;;;5.40;99.90;;;;;;4978055;28;20206;-87
2024/02/07 03:33:45;;;;;;;1.05;0.95;;;5.30;99.90;;;;;;4976964;28;20292;-88
2024/02/07 03:36:13;;;;;;;1.60;1.00;;;5.30;99.90;;;;;;4977611;28;20206;-88
2024/02/07 03:38:40;;;;;;;2.17;1.15;;;5.30;99.90;;;;;;4981018;28;20265;-87
2024/02/07 03:41:09;;;;;;;1.50;0.90;;;5.30;99.90;;;;;;4978022;28;20206;-88
2024/02/07 03:43:36;;;;;;;1.20;1.10;;;5.20;99.90;;;;;;4994617;28;20201;-87
2024/02/07 03:46:05;;;;;;;1.15;0.80;;;5.30;99.90;;;;;;4991866;28;20249;-88
2024/02/07 03:48:32;;;;;;;1.20;0.85;;;5.20;99.90;;;;;;4985501;28;20217;-88
2024/02/07 03:50:59;;;;;;;2.67;0.98;;;5.10;99.90;;;;;;4981236;28;20265;-88
2024/02/07 03:53:27;;;;;;;1.17;0.90;;;5.00;99.90;;;;;;4980824;28;20237;-89
2024/02/07 03:55:54;;;;;;;1.10;0.70;;;5.00;1.00;;;;;;4976851;28;20620;-87
2024/02/07 03:58:24;;;;;;;7.18;3.22;;;4.70;99.90;;;;;;4976942;28;20213;-85
2024/02/07 04:00:51;;;;;;;1.73;1.40;;;4.60;99.90;;;;;;4977384;28;20704;-85
2024/02/07 04:03:18;;;;;;;2.58;1.30;;;4.80;1.00;;;;;;4976814;28;20296;-85
2024/02/07 04:05:45;;;;;;;1.80;1.10;;;4.90;1.00;;;;;;4997410;28;20202;-85
2024/02/07 04:08:12;;;;;;;1.67;1.20;;;4.80;1.00;;;;;;4993463;28;20269;-86
2024/02/07 04:10:42;;;;;;;1.80;0.90;;;4.70;99.90;;;;;;4978638;28;20205;-85
2024/02/07 05:15:58;;;;;;;1.15;0.90;;;3.90;99.90;;;;;;4979435;28;20268;-86
2024/02/07 05:18:25;;;;;;;1.40;1.20;;;3.90;99.90;;;;;;4979143;28;20284;-84
2024/02/07 05:20:52;;;;;;;6.50;0.95;;;3.90;99.90;;;;;;4979326;28;20213;-86
2024/02/07 05:23:20;;;;;;;1.42;0.82;;;4.00;99.90;;;;;;4979206;28;20216;-86
2024/02/07 05:25:48;;;;;;;6.00;1.15;;;4.00;99.90;;;;;;4977383;28;20226;-84
2024/02/07 05:28:15;;;;;;;1.13;0.98;;;3.90;99.90;;;;;;4978581;28;20221;-86
2024/02/07 05:30:42;;;;;;;3.95;1.23;;;3.90;99.90;;;;;;4984642;28;20245;-87
2024/02/07 05:33:10;;;;;;;1.67;1.48;;;3.80;99.90;;;;;;4978919;28;20292;-86
2024/02/07 05:35:37;;;;;;;2.95;1.05;;;3.90;99.90;;;;;;4979173;28;20305;-86
2024/02/07 05:38:04;;;;;;;5.70;1.25;;;3.90;99.90;;;;;;4982637;28;20210;-86
2024/02/07 05:40:31;;;;;;;3.70;1.13;;;3.80;99.90;;;;;;4986377;28;20488;-86
2024/02/07 05:43:00;;;;;;;1.20;0.90;;;3.90;99.90;;;;;;4988413;28;20229;-87
2024/02/07 05:45:27;;;;;;;7.07;1.55;;;3.90;99.90;;;;;;4983582;28;20226;-86
2024/02/07 05:47:53;;;;;;;3.15;1.10;;;3.90;99.90;;;;;;4980972;28;20272;-85
2024/02/07 05:50:22;;;;;;;2.20;1.60;;;3.80;99.90;;;;;;4980827;28;20677;-85
2024/02/07 05:52:49;;;;;;;2.28;0.90;;;3.90;99.90;;;;;;4984050;28;20212;-86
2024/02/07 05:55:16;;;;;;;2.05;1.10;;;3.90;99.90;;;;;;4985423;28;20257;-85
2024/02/07 05:57:43;;;;;;;3.83;0.80;;;3.90;99.90;;;;;;4987021;28;20721;-85
2024/02/07 06:00:10;;;;;;;2.72;1.55;;;3.90;99.90;;;;;;4984805;28;20273;-85
2024/02/07 06:02:38;;;;;;;1.85;0.90;;;3.90;99.90;;;;;;4992424;28;20237;-86
2024/02/07 06:05:05;;;;;;;2.42;1.00;;;3.80;99.90;;;;;;4989454;28;20221;-86
2024/02/07 06:07:34;;;;;;;2.50;1.17;;;3.90;99.90;;;;;;4985612;28;20267;-85
2024/02/07 06:10:01;;;;;;;1.38;1.15;;;4.00;99.90;;;;;;4984969;28;20705;-85
2024/02/07 06:12:30;;;;;;;5.10;1.00;;;3.90;99.90;;;;;;4982707;28;20272;-84
2024/02/07 06:14:58;;;;;;;12.88;1.55;;;3.90;99.90;;;;;;4981311;28;20226;-85
2024/02/07 06:17:25;;;;;;;2.10;1.00;;;3.90;99.90;;;;;;4980912;28;20202;-84
2024/02/07 06:22:47;;;;;;;1.27;1.17;;;4.00;99.90;;;;;;4982689;28;20666;-85
2024/02/07 06:25:14;;;;;;;1.27;0.90;;;3.90;99.90;;;;;;4979397;28;20264;-84
2024/02/07 06:27:41;;;;;;;2.60;1.23;;;3.90;99.90;;;;;;4981690;28;20209;-85
2024/02/07 06:30:09;;;;;;;2.25;1.17;;;4.00;99.90;;;;;;4980079;28;20216;-85
2024/02/07 06:32:36;;;;;;;4.43;2.20;;;4.00;99.90;;;;;;4983409;28;20269;-85
2024/02/07 06:35:02;;;;;;;1.92;1.05;;;4.20;99.90;;;;;;4986966;28;20256;-85
2024/02/07 06:37:29;;;;;;;4.35;1.17;;;4.20;99.90;;;;;;4996995;28;20201;-85
2024/02/07 06:39:57;;;;;;;2.08;1.00;;;4.10;99.90;;;;;;4996772;28;20267;-85
2024/02/07 06:42:24;;;;;;;2.30;1.10;;;4.10;99.90;;;;;;4981709;28;20237;-84
2024/02/07 06:44:51;;;;;;;2.10;1.10;;;4.20;99.90;;;;;;4982056;28;20268;-85
2024/02/07 06:47:18;;;;;;;5.20;1.52;;;4.20;99.90;;;;;;4979367;28;20212;-85
2024/02/07 06:49:45;;;;;;;1.92;1.40;;;4.20;99.90;;;;;;4978806;28;20316;-85
2024/02/07 06:52:12;;;;;;;2.85;1.85;;;4.20;99.90;;;;;;4980164;28;20210;-85
2024/02/07 06:54:39;;;;;;;3.45;1.42;;;4.10;99.90;;;;;;4980656;28;20253;-86
2024/02/07 06:57:07;;;;;;;4.07;1.42;;;4.10;99.90;;;;;;4986994;28;20196;-85
2024/02/07 06:59:34;;;;;;;4.43;1.60;;;4.10;99.90;;;;;;4984127;28;20216;-87
2024/02/07 07:02:00;;;;;;;3.10;2.00;;;4.10;99.90;;;;;;4985145;28;20208;-85
2024/02/07 07:04:27;;;;;;;4.90;1.90;;;4.20;99.90;;;;;;4995396;28;20260;-85
2024/02/07 07:06:54;;;;;;;6.40;1.88;;;4.30;99.90;;;;;;4995709;28;20245;-86
2024/02/07 07:09:21;;;;;;;4.72;1.77;;;4.30;99.90;;;;;;4986566;28;20748;-85
2024/02/07 07:11:48;;;;;;;3.50;1.55;;;4.20;99.90;;;;;;4986215;28;20273;-85
2024/02/07 07:14:18;;;;;;;5.00;3.22;;;4.20;99.90;;;;;;4987835;28;20653;-85
2024/02/07 07:16:45;;;;;;;9.98;4.82;;;4.20;99.90;;;;;;4982691;28;20205;-85
2024/02/07 07:19:12;;;;;;;12.65;5.90;;;4.30;99.90;;;;;;4979520;28;20202;-86
2024/02/07 07:24:19;;;;;;;8.38;5.65;;;4.30;99.90;;;;;;4983612;28;20213;-85
2024/02/07 07:26:46;;;;;;;11.05;7.05;;;4.30;99.90;;;;;;4979301;28;20213;-85
2024/02/07 07:29:17;;;;;;;7.30;4.55;;;4.30;99.90;;;;;;4981505;28;20241;-86
2024/02/07 07:31:45;;;;;;;8.55;4.22;;;4.30;99.90;;;;;;4984638;28;20178;-86
2024/02/07 07:34:12;;;;;;;8.10;4.40;;;4.30;99.90;;;;;;4993419;28;20248;-86
2024/02/07 07:36:39;;;;;;;9.05;3.15;;;4.30;99.90;;;;;;4991824;28;20277;-86
2024/02/07 07:39:08;;;;;;;13.82;9.77;;;4.30;99.90;;;;;;4983633;28;20615;-86
2024/02/07 07:41:38;;;;;;;11.45;5.50;;;4.40;99.90;;;;;;4986924;28;20205;-86
2024/02/07 07:44:05;;;;;;;7.03;2.85;;;4.40;99.90;;;;;;4981412;28;20504;-85
2024/02/07 07:46:32;;;;;;;6.72;2.75;;;4.40;99.90;;;;;;4982535;28;20206;-86
2024/02/07 07:49:00;;;;;;;7.72;2.10;;;4.40;99.90;;;;;;4982311;28;20240;-86
2024/02/07 07:51:27;;;;;;;7.60;2.40;;;4.40;99.90;;;;;;4985824;28;20205;-86
2024/02/07 07:53:54;;;;;;;6.57;2.67;;;4.50;99.90;;;;;;4985975;28;20579;-86
2024/02/07 07:56:21;;;;;;;12.30;3.78;;;4.50;99.90;;;;;;5012856;23;20236;-86
2024/02/07 07:58:49;;;;;;;9.02;2.15;;;4.50;99.90;;;;;;4986851;28;20197;-86
2024/02/07 08:01:19;;;;;;;6.78;2.03;;;4.60;99.90;;;;;;4990828;28;20265;-86
2024/02/07 08:03:46;;;;;;;4.72;2.20;;;4.50;99.90;;;;;;4984788;28;20273;-86
2024/02/07 08:06:16;;;;;;;6.93;1.65;;;4.60;99.90;;;;;;4985741;28;20297;-85
2024/02/07 08:08:43;;;;;;;4.57;2.40;;;4.60;86.20;;;;;;4985452;28;20276;-85
2024/02/07 08:11:10;;;;;;;8.10;2.20;;;4.70;60.80;;;;;;4986043;28;20746;-85
2024/02/07 08:13:37;;;;;;;6.97;1.90;;;4.70;37.10;;;;;;4985091;28;20201;-86
2024/02/07 08:16:04;;;;;;;5.10;2.30;;;4.60;18.00;;;;;;4997247;28;20293;-84
2024/02/07 08:18:31;;;;;;;8.07;4.88;;;4.60;44.50;;;;;;4990464;28;20266;-85
2024/02/07 08:20:58;;;;;;;3.03;2.72;;;4.60;86.80;;;;;;4994491;28;20232;-83
2024/02/07 08:23:27;;;;;;;13.90;3.40;;;4.60;70.10;;;;;;4996977;28;20201;-84
2024/02/07 08:25:54;;;;;;;8.35;2.10;;;4.60;58.90;;;;;;4994703;28;20234;-85
2024/02/07 08:28:20;;;;;;;8.63;2.55;;;4.70;65.30;;;;;;4983487;28;20209;-85
2024/02/07 08:30:47;;;;;;;4.22;2.15;;;4.70;40.40;;;;;;4983708;28;20296;-86
2024/02/07 08:33:14;;;;;;;7.47;3.03;;;4.70;30.00;;;;;;4984788;28;20292;-85
2024/02/07 08:35:41;;;;;;;10.93;2.92;;;4.70;37.40;;;;;;4992209;28;20297;-86
2024/02/07 08:38:08;;;;;;;4.13;2.70;;;4.70;29.60;;;;;;4988030;28;20209;-85
2024/02/07 08:40:36;;;;;;;6.10;1.80;;;4.70;17.80;;;;;;4985358;28;20292;-85
2024/02/07 08:43:06;;;;;;;7.00;2.70;;;4.80;4.40;;;;;;4985031;28;20211;-86
2024/02/07 08:45:34;;;;;;;4.15;3.13;;;4.80;1.00;;;;;;4984951;28;20230;-85
2024/02/07 08:48:01;;;;;;;6.63;2.40;;;4.80;1.00;;;;;;4984890;28;20228;-85
2024/02/07 08:50:27;;;;;;;6.82;2.30;;;4.80;1.00;;;;;;4985500;28;20233;-85
2024/02/07 08:52:54;;;;;;;6.47;2.40;;;4.90;1.00;;;;;;4984777;28;20205;-86
2024/02/07 08:55:21;;;;;;;8.88;3.03;;;4.90;1.00;;;;;;4984451;28;20233;-85
2024/02/07 08:57:49;;;;;;;5.35;2.13;;;4.80;1.00;;;;;;4984166;28;20248;-86
2024/02/07 09:00:17;;;;;;;5.97;2.38;;;5.00;1.00;;;;;;4984285;28;20244;-86
2024/02/07 09:02:49;;;;;;;5.07;2.47;;;5.00;1.00;;;;;;4986089;28;20237;-86
2024/02/07 09:05:16;;;;;;;7.30;2.90;;;5.00;1.00;;;;;;4984065;28;20233;-87
2024/02/07 09:07:43;;;;;;;5.32;2.20;;;5.10;1.00;;;;;;4984524;28;20212;-86
2024/02/07 09:10:10;;;;;;;9.20;2.78;;;5.00;1.00;;;;;;4986749;28;20249;-87
2024/02/07 09:12:37;;;;;;;8.35;2.70;;;5.10;1.00;;;;;;4981302;28;20206;-85
2024/02/07 09:15:06;;;;;;;5.05;2.30;;;5.10;1.00;;;;;;4980974;28;20245;-85
2024/02/07 09:17:33;;;;;;;3.90;2.40;;;5.10;1.00;;;;;;4983888;28;20237;-86
2024/02/07 09:20:00;;;;;;;6.07;2.33;;;5.10;1.00;;;;;;4983795;28;20198;-84
2024/02/07 09:22:27;;;;;;;5.55;2.30;;;5.10;1.00;;;;;;4982407;28;20206;-85
2024/02/07 09:24:54;;;;;;;5.55;2.58;;;5.10;1.00;;;;;;4983785;28;20671;-86
2024/02/07 09:27:22;;;;;;;7.80;2.33;;;5.30;1.00;;;;;;4992843;28;20229;-84
2024/02/07 09:29:49;;;;;;;3.90;2.50;;;5.40;1.00;;;;;;4999628;28;20772;-83
2024/02/07 09:32:18;;;;;;;5.15;2.30;;;5.40;99.90;;;;;;4993662;28;20210;-86
2024/02/07 09:34:45;;;;;;;4.13;2.05;;;5.40;99.90;;;;;;4992870;28;20222;-87
2024/02/07 09:37:12;;;;;;;6.68;2.20;;;5.40;99.90;;;;;;4990032;28;20209;-87
2024/02/07 09:39:39;;;;;;;8.35;1.80;;;5.40;95.70;;;;;;4986895;28;20293;-86
2024/02/07 09:42:11;;;;;;;5.80;2.50;;;5.40;80.60;;;;;;4985533;28;20599;-86
2024/02/07 09:44:40;;;;;;;2.75;1.70;;;5.50;68.30;;;;;;4990888;28;20281;-86
2024/02/07 09:47:14;;;;;;;4.97;2.00;;;5.60;99.90;;;;;;4995969;28;20209;-84
2024/02/07 09:49:42;;;;;;;6.97;2.47;;;5.60;1.00;;;;;;5000723;28;20212;-85
2024/02/07 09:52:12;;;;;;;11.88;2.95;;;5.50;1.00;;;;;;5000793;28;20213;-85
2024/02/07 09:54:40;;;;;;;7.75;2.58;;;5.50;1.00;;;;;;4999737;28;20245;-84
2024/02/07 09:57:07;;;;;;;8.80;2.60;;;5.70;3.10;;;;;;4990810;28;20197;-85
2024/02/07 09:59:37;;;;;;;7.45;1.80;;;5.70;1.00;;;;;;4985204;28;20238;-86
2024/02/07 10:02:07;;;;;;;6.72;2.22;;;5.90;86.10;;;;;;4979899;28;20206;-86
2024/02/07 10:04:38;;;;;;;7.28;2.17;;;5.80;1.00;;;;;;4980149;28;20230;-87
2024/02/07 10:07:10;;;;;;;8.38;2.30;;;5.80;1.00;;;;;;4981442;28;20284;-86
2024/02/07 10:09:43;;;;;;;8.77;2.50;;;5.80;1.00;;;;;;4984196;28;20277;-86
2024/02/07 10:12:12;;;;;;;13.25;2.67;;;6.00;1.00;;;;;;4986117;28;20186;-87
2024/02/07 10:14:40;;;;;;;4.50;2.15;;;5.90;1.00;;;;;;4998530;28;20209;-86
2024/02/07 10:17:07;;;;;;;5.90;2.83;;;6.10;1.00;;;;;;4999780;28;20210;-84
2024/02/07 10:19:38;;;;;;;7.55;2.30;;;6.10;1.00;;;;;;4993947;28;20260;-86
2024/02/07 10:22:16;;;;;;;10.82;3.45;;;6.00;1.00;;;;;;4986496;28;20186;-86
2024/02/07 10:24:45;;;;;;;4.80;2.15;;;6.00;1.00;;;;;;4984567;28;20335;-86
2024/02/07 10:27:18;;;;;;;8.10;2.83;;;5.90;99.90;;;;;;4983951;28;20218;-86
2024/02/07 10:29:45;;;;;;;6.72;2.60;;;5.90;1.00;;;;;;4988671;28;20225;-87
2024/02/07 10:32:16;;;;;;;9.55;3.40;;;6.00;1.00;;;;;;4983247;28;20213;-86
2024/02/07 10:34:50;;;;;;;8.32;3.70;;;6.00;99.90;;;;;;4983093;28;20226;-87
2024/02/07 10:37:19;;;;;;;9.27;2.67;;;6.00;99.90;;;;;;4982107;28;20205;-87
2024/02/07 10:39:45;;;;;;;12.75;2.80;;;5.90;99.90;;;;;;4982659;28;20575;-87
2024/02/07 10:42:13;;;;;;;11.25;4.20;;;6.00;99.90;;;;;;4984561;28;20273;-86
2024/02/07 10:44:40;;;;;;;13.57;3.20;;;6.00;99.90;;;;;;4993041;28;20260;-84
2024/02/07 10:47:09;;;;;;;5.40;2.45;;;6.00;99.90;;;;;;4989739;28;20202;-86
2024/02/07 10:49:37;;;;;;;8.77;3.00;;;5.90;1.00;;;;;;4983547;28;20606;-86
2024/02/07 10:52:10;;;;;;;6.40;2.60;;;5.90;99.90;;;;;;4986020;28;20209;-85
2024/02/07 10:54:39;;;;;;;11.75;2.80;;;5.90;1.00;;;;;;4984420;28;20316;-86
2024/02/07 10:57:07;;;;;;;6.78;3.42;;;5.90;1.00;;;;;;4994809;28;20217;-86
2024/02/07 10:59:50;;;;;;;10.73;3.53;;;6.00;1.00;;;;;;4996576;28;20214;-85
2024/02/07 11:02:17;;;;;;;10.52;2.75;;;6.00;1.00;;;;;;4994331;28;20289;-87
2024/02/07 11:04:45;;;;;;;7.82;3.30;;;6.10;1.00;;;;;;4983303;28;20642;-86
2024/02/07 11:07:15;;;;;;;8.88;2.63;;;6.00;99.90;;;;;;4983324;28;20217;-86
2024/02/07 11:09:46;;;;;;;11.88;2.45;;;5.90;99.90;;;;;;4983498;28;20206;-86
2024/02/07 11:12:14;;;;;;;6.63;3.47;;;5.80;99.90;;;;;;4982770;28;20190;-87
2024/02/07 11:14:43;;;;;;;9.60;2.92;;;5.80;99.90;;;;;;4995752;28;20229;-83
2024/02/07 11:17:10;;;;;;;11.68;3.28;;;5.70;99.90;;;;;;4995694;28;20217;-83
2024/02/07 11:19:37;;;;;;;9.48;3.20;;;5.60;5.80;;;;;;4992631;28;20201;-85
2024/02/07 11:22:07;;;;;;;13.95;3.42;;;5.60;1.00;;;;;;4993180;28;20244;-87
2024/02/07 11:24:36;;;;;;;9.13;3.20;;;5.40;99.90;;;;;;4992030;28;20304;-85
2024/02/07 11:27:04;;;;;;;9.85;2.80;;;5.40;99.90;;;;;;4991950;28;20233;-83
2024/02/07 11:29:33;;;;;;;7.43;2.58;;;5.40;99.90;;;;;;4991653;28;20253;-84
2024/02/07 11:32:03;;;;;;;11.70;2.45;;;5.40;1.00;;;;;;4993112;28;20205;-86
2024/02/07 11:34:31;;;;;;;8.15;2.17;;;5.40;1.00;;;;;;4991820;28;20674;-86
2024/02/07 11:37:04;;;;;;;5.47;2.05;;;5.40;1.00;;;;;;4983842;28;20210;-86
2024/02/07 11:39:37;;;;;;;4.32;2.47;;;5.50;44.80;;;;;;4983547;28;20629;-86
2024/02/07 11:42:12;;;;;;;5.72;2.60;;;5.60;99.90;;;;;;4982348;28;20190;-86
2024/02/07 11:44:51;;;;;;;9.38;2.20;;;5.70;1.00;;;;;;4984602;28;20232;-86
2024/02/07 11:47:24;;;;;;;5.88;2.20;;;5.70;1.00;;;;;;4989146;28;20221;-86
2024/02/07 11:49:57;;;;;;;7.28;2.10;;;5.70;1.00;;;;;;4991963;28;20213;-85
2024/02/07 11:52:29;;;;;;;5.30;2.25;;;5.90;1.00;;;;;;4984983;28;20185;-85
2024/02/07 11:55:02;;;;;;;11.38;2.85;;;6.10;1.00;;;;;;4982740;28;20240;-86
2024/02/07 11:57:31;;;;;;;7.75;2.38;;;6.30;1.00;;;;;;4983101;28;20197;-86
2024/02/07 12:00:00;;;;;;;12.52;3.20;;;6.40;1.00;;;;;;4982646;28;20198;-85
2024/02/07 12:02:27;;;;;;;9.20;3.30;;;6.40;1.00;;;;;;4983599;28;20209;-85
2024/02/07 12:04:55;;;;;;;7.13;1.70;;;6.50;1.00;;;;;;4982431;28;20237;-86
2024/02/07 12:07:22;;;;;;;6.90;2.22;;;6.50;1.00;;;;;;4981862;28;20209;-85
2024/02/07 12:09:48;;;;;;;8.63;2.40;;;6.50;1.00;;;;;;4989621;28;20293;-85
2024/02/07 12:12:16;;;;;;;3.67;1.88;;;6.60;1.00;;;;;;4989232;28;20297;-86
2024/02/07 12:14:46;;;;;;;8.50;2.53;;;6.60;1.00;;;;;;4984360;28;20225;-86
2024/02/07 12:17:13;;;;;;;10.40;3.30;;;6.70;1.00;;;;;;4983461;28;20198;-86
2024/02/07 12:19:43;;;;;;;13.10;3.35;;;6.50;1.00;;;;;;4984899;28;20240;-85
2024/02/07 12:22:16;;;;;;;11.70;3.03;;;6.50;1.00;;;;;;4983367;28;20217;-86
2024/02/07 12:24:44;;;;;;;9.48;2.58;;;6.50;1.00;;;;;;4985096;28;20317;-86
2024/02/07 12:27:13;;;;;;;9.52;3.10;;;6.40;1.00;;;;;;4983615;28;20562;-85
2024/02/07 12:29:40;;;;;;;3.70;2.03;;;6.40;1.00;;;;;;4981520;28;20712;-85
2024/02/07 12:32:09;;;;;;;6.63;2.53;;;6.40;1.00;;;;;;4983429;28;20425;-85
2024/02/07 12:34:36;;;;;;;9.55;2.03;;;6.40;1.00;;;;;;4982017;28;20317;-86
2024/02/07 12:37:04;;;;;;;7.70;2.90;;;6.40;1.00;;;;;;4984581;28;20292;-85
2024/02/07 12:39:31;;;;;;;9.10;2.78;;;6.50;1.00;;;;;;4993610;28;20209;-85
2024/02/07 12:42:03;;;;;;;9.20;3.35;;;6.50;1.00;;;;;;5000878;28;20296;-84
2024/02/07 12:44:31;;;;;;;9.38;2.53;;;6.30;1.00;;;;;;4990323;28;20186;-86
2024/02/07 12:46:59;;;;;;;14.57;2.97;;;6.30;1.00;;;;;;5001064;28;20197;-83
2024/02/07 12:49:27;;;;;;;8.20;2.85;;;6.40;1.00;;;;;;5001745;28;20201;-85
2024/02/07 12:51:54;;;;;;;8.05;2.80;;;6.40;1.00;;;;;;5002161;28;20202;-86
2024/02/07 12:54:21;;;;;;;6.85;2.55;;;6.40;1.00;;;;;;5001416;28;20221;-84
2024/02/07 12:56:52;;;;;;;10.65;2.65;;;6.50;1.00;;;;;;5001176;28;20186;-84
2024/02/07 12:59:28;;;;;;;6.60;3.08;;;6.50;1.00;;;;;;4991823;28;20224;-85
2024/02/07 13:01:55;;;;;;;6.88;3.03;;;6.40;1.00;;;;;;4985331;28;20186;-85
2024/02/07 13:04:22;;;;;;;10.02;2.40;;;6.40;1.00;;;;;;4985053;28;20208;-86
2024/02/07 13:06:50;;;;;;;4.32;2.40;;;6.30;1.00;;;;;;4986102;28;20236;-85
2024/02/07 13:09:17;;;;;;;5.88;2.13;;;6.30;1.00;;;;;;4984356;28;20296;-84
2024/02/07 13:11:44;;;;;;;5.47;1.67;;;6.30;1.00;;;;;;4985397;28;20228;-85
2024/02/07 13:14:11;;;;;;;9.45;2.92;;;6.20;1.00;;;;;;4986152;28;20214;-85
2024/02/07 13:16:38;;;;;;;7.13;2.42;;;6.10;1.00;;;;;;4991693;28;20210;-85
2024/02/07 13:19:05;;;;;;;9.20;3.17;;;6.30;1.00;;;;;;4986337;28;20702;-84
2024/02/07 13:21:32;;;;;;;16.63;2.80;;;6.30;1.00;;;;;;4993777;28;20284;-86
2024/02/07 13:24:00;;;;;;;5.70;2.10;;;6.40;1.00;;;;;;4990492;28;20205;-87
2024/02/07 13:26:28;;;;;;;11.93;3.15;;;6.20;1.00;;;;;;4984841;28;20289;-86
2024/02/07 13:28:54;;;;;;;6.25;2.67;;;6.20;1.00;;;;;;4988828;28;20284;-86
2024/02/07 13:31:21;;;;;;;6.25;2.17;;;6.20;1.00;;;;;;4985799;28;20256;-86
2024/02/07 13:33:48;;;;;;;4.83;2.37;;;6.30;1.00;;;;;;4985630;28;20209;-86
2024/02/07 13:36:30;;;;;;;4.25;2.25;;;6.30;1.00;;;;;;4988226;28;20480;-83
2024/02/07 13:38:57;;;;;;;4.53;1.88;;;6.40;1.00;;;;;;4993059;28;20197;-86
2024/02/07 13:41:26;;;;;;;7.22;2.42;;;6.30;1.00;;;;;;4986727;28;20257;-84
2024/02/07 13:43:53;;;;;;;7.50;3.25;;;6.30;1.00;;;;;;4988459;28;20214;-86
2024/02/07 13:46:30;;;;;;;8.60;2.20;;;6.40;1.00;;;;;;4990958;28;20230;-83
2024/02/07 13:49:08;;;;;;;7.63;2.45;;;6.40;1.00;;;;;;4994134;28;20189;-84
2024/02/07 13:51:42;;;;;;;6.70;2.72;;;6.40;1.00;;;;;;4993338;28;20216;-83
2024/02/07 13:54:09;;;;;;;6.75;1.75;;;6.40;1.00;;;;;;4986431;28;20189;-85
2024/02/07 13:56:42;;;;;;;2.28;2.03;;;6.30;1.00;;;;;;4993873;28;20230;-85
2024/02/07 13:59:09;;;;;;;3.95;2.50;;;6.20;1.00;;;;;;4998305;28;20190;-86
2024/02/07 14:01:37;;;;;;;5.05;2.78;;;6.20;1.00;;;;;;4993240;28;20277;-85
2024/02/07 14:04:12;;;;;;;5.03;1.92;;;6.10;1.00;;;;;;4988160;28;20206;-85
2024/02/07 14:06:39;;;;;;;5.60;1.65;;;6.20;1.00;;;;;;4983740;28;20573;-86
2024/02/07 14:09:07;;;;;;;10.38;2.22;;;6.20;1.00;;;;;;4996819;23;20225;-88
2024/02/07 14:11:40;;;;;;;3.42;1.65;;;6.10;1.00;;;;;;4984711;28;20788;-87
2024/02/07 14:14:08;;;;;;;3.97;1.60;;;5.90;1.00;;;;;;4984692;28;20194;-87
2024/02/07 14:16:35;;;;;;;5.25;2.20;;;6.00;1.00;;;;;;4985127;28;20212;-87
2024/02/07 14:19:03;;;;;;;8.32;1.75;;;6.00;1.00;;;;;;4985898;28;20256;-87